createdAt,value
2018-09-05T00:00:57.661Z,13.04
2018-09-05T00:01:57.513Z,13.09
2018-09-05T00:02:57.510Z,13.09
2018-09-05T00:03:57.505Z,13.11
2018-09-05T00:04:57.534Z,13.07
2018-09-05T00:05:57.510Z,13.09
2018-09-05T00:06:57.509Z,13.04
2018-09-05T00:07:57.507Z,13.06
2018-09-05T00:08:57.506Z,13.12
2018-09-05T00:09:57.536Z,13.07
2018-09-05T00:10:57.502Z,13.09
2018-09-05T00:11:57.501Z,13.18
2018-09-05T00:12:57.504Z,13.09
2018-09-05T00:13:57.527Z,13.07
2018-09-05T00:14:57.499Z,13.15
2018-09-05T00:15:57.503Z,13.12
2018-09-05T00:16:57.500Z,13.12
2018-09-05T00:17:57.496Z,13.04
2018-09-05T00:18:57.525Z,13.07
2018-09-05T00:19:57.499Z,13.04
2018-09-05T00:20:57.497Z,13.02
2018-09-05T00:21:57.498Z,12.96
2018-09-05T00:22:57.521Z,12.95
2018-09-05T00:23:57.493Z,12.87
2018-09-05T00:24:57.522Z,12.92
2018-09-05T00:25:57.497Z,12.89
2018-09-05T00:26:57.489Z,12.92
2018-09-05T00:27:57.486Z,12.88
2018-09-05T00:28:57.491Z,12.89
2018-09-05T00:29:57.539Z,12.92
2018-09-05T00:30:57.486Z,12.88
2018-09-05T00:31:57.483Z,12.93
2018-09-05T00:32:57.486Z,12.93
2018-09-05T00:33:57.519Z,12.84
2018-09-05T00:34:57.483Z,12.92
2018-09-05T00:35:57.482Z,12.84
2018-09-05T00:36:57.484Z,12.81
2018-09-05T00:37:57.483Z,12.78
2018-09-05T00:38:57.509Z,12.78
2018-09-05T00:39:57.504Z,12.70
2018-09-05T00:40:57.480Z,12.74
2018-09-05T00:41:57.484Z,12.63
2018-09-05T00:42:57.476Z,12.70
2018-09-05T00:43:57.477Z,12.64
2018-09-05T00:44:57.504Z,12.67
2018-09-05T00:45:57.477Z,12.64
2018-09-05T00:46:57.473Z,12.63
2018-09-05T00:47:57.473Z,12.63
2018-09-05T00:48:57.473Z,12.60
2018-09-05T00:49:57.497Z,12.64
2018-09-05T00:50:57.476Z,12.62
2018-09-05T00:51:57.470Z,12.57
2018-09-05T00:52:57.467Z,12.59
2018-09-05T00:53:57.470Z,12.57
2018-09-05T00:54:57.494Z,12.54
2018-09-05T00:55:57.468Z,12.54
2018-09-05T00:56:57.466Z,12.60
2018-09-05T00:57:57.467Z,12.67
2018-09-05T00:58:57.462Z,12.63
2018-09-05T00:59:57.487Z,12.63
2018-09-05T01:00:57.463Z,12.66
2018-09-05T01:01:57.460Z,12.66
2018-09-05T01:02:57.457Z,12.56
2018-09-05T01:03:57.463Z,12.52
2018-09-05T01:04:57.493Z,12.54
2018-09-05T01:05:57.458Z,12.52
2018-09-05T01:06:57.456Z,12.54
2018-09-05T01:07:57.459Z,12.57
2018-09-05T01:08:57.480Z,12.59
2018-09-05T01:09:57.450Z,12.56
2018-09-05T01:10:57.455Z,12.63
2018-09-05T01:11:57.449Z,12.59
2018-09-05T01:12:57.446Z,12.62
2018-09-05T01:13:57.477Z,12.56
2018-09-05T01:14:57.478Z,12.45
2018-09-05T01:15:57.446Z,12.54
2018-09-05T01:16:57.444Z,12.57
2018-09-05T01:17:57.450Z,12.57
2018-09-05T01:18:57.442Z,12.60
2018-09-05T01:19:57.471Z,12.49
2018-09-05T01:20:57.443Z,12.46
2018-09-05T01:21:57.451Z,12.44
2018-09-05T01:22:57.446Z,12.49
2018-09-05T01:23:57.440Z,12.52
2018-09-05T01:24:57.467Z,12.48
2018-09-05T01:25:57.436Z,12.49
2018-09-05T01:26:57.438Z,12.46
2018-09-05T01:27:57.436Z,12.49
2018-09-05T01:28:57.431Z,12.48
2018-09-05T01:29:57.464Z,12.42
2018-09-05T01:30:57.435Z,12.39
2018-09-05T01:31:57.429Z,12.49
2018-09-05T01:32:57.428Z,12.59
2018-09-05T01:33:57.428Z,12.39
2018-09-05T01:34:57.456Z,12.34
2018-09-05T01:35:57.425Z,12.48
2018-09-05T01:36:57.425Z,12.45
2018-09-05T01:37:57.425Z,12.49
2018-09-05T01:38:57.427Z,12.51
2018-09-05T01:39:57.454Z,12.64
2018-09-05T01:40:59.083Z,12.60
2018-09-05T01:41:57.423Z,12.66
2018-09-05T01:42:57.417Z,12.59
2018-09-05T01:43:57.444Z,12.54
2018-09-05T01:44:57.446Z,12.51
2018-09-05T01:45:57.416Z,12.48
2018-09-05T01:46:57.413Z,12.49
2018-09-05T01:47:57.410Z,12.52
2018-09-05T01:48:57.411Z,12.46
2018-09-05T01:49:57.435Z,12.49
2018-09-05T01:50:57.407Z,12.45
2018-09-05T01:51:57.408Z,12.51
2018-09-05T01:52:57.408Z,12.30
2018-09-05T01:53:57.403Z,12.41
2018-09-05T01:54:57.437Z,12.34
2018-09-05T01:55:57.404Z,12.42
2018-09-05T01:56:57.401Z,12.42
2018-09-05T01:57:57.407Z,12.44
2018-09-05T01:58:57.401Z,12.42
2018-09-05T01:59:57.430Z,12.37
2018-09-05T02:00:57.398Z,12.34
2018-09-05T02:01:57.446Z,12.31
2018-09-05T02:02:57.398Z,12.27
2018-09-05T02:03:57.421Z,12.29
2018-09-05T02:04:57.394Z,12.21
2018-09-05T02:05:57.393Z,12.19
2018-09-05T02:06:57.394Z,12.15
2018-09-05T02:07:57.393Z,12.20
2018-09-05T02:08:57.421Z,12.23
2018-09-05T02:09:57.418Z,12.09
2018-09-05T02:10:57.375Z,12.11
2018-09-05T02:11:57.375Z,12.11
2018-09-05T02:12:57.376Z,12.15
2018-09-05T02:13:57.392Z,12.12
2018-09-05T02:14:57.400Z,12.12
2018-09-05T02:15:57.367Z,12.16
2018-09-05T02:16:57.368Z,12.04
2018-09-05T02:17:57.370Z,12.11
2018-09-05T02:18:57.396Z,12.15
2018-09-05T02:19:57.395Z,12.15
2018-09-05T02:20:57.372Z,12.15
2018-09-05T02:21:57.365Z,12.13
2018-09-05T02:22:57.364Z,12.19
2018-09-05T02:23:57.364Z,12.16
2018-09-05T02:24:57.386Z,12.13
2018-09-05T02:25:57.357Z,12.23
2018-09-05T02:26:57.357Z,12.27
2018-09-05T02:27:57.357Z,12.26
2018-09-05T02:28:57.353Z,12.26
2018-09-05T02:29:57.387Z,12.27
2018-09-05T02:30:57.356Z,12.21
2018-09-05T02:31:57.349Z,12.11
2018-09-05T02:32:57.353Z,12.24
2018-09-05T02:33:57.350Z,12.12
2018-09-05T02:34:57.380Z,12.12
2018-09-05T02:35:57.346Z,12.12
2018-09-05T02:36:57.350Z,12.13
2018-09-05T02:37:57.343Z,12.11
2018-09-05T02:38:57.371Z,12.12
2018-09-05T02:39:57.367Z,12.20
2018-09-05T02:40:57.339Z,12.15
2018-09-05T02:41:57.339Z,12.26
2018-09-05T02:42:57.336Z,12.23
2018-09-05T02:43:57.340Z,12.23
2018-09-05T02:44:57.360Z,12.20
2018-09-05T02:45:57.336Z,12.19
2018-09-05T02:46:57.333Z,12.21
2018-09-05T02:47:57.352Z,12.09
2018-09-05T02:48:57.325Z,12.19
2018-09-05T02:49:57.355Z,12.13
2018-09-05T02:50:57.328Z,12.13
2018-09-05T02:51:57.324Z,11.94
2018-09-05T02:52:57.325Z,11.99
2018-09-05T02:53:57.326Z,11.99
2018-09-05T02:54:57.349Z,11.93
2018-09-05T02:55:57.321Z,11.86
2018-09-05T02:56:57.317Z,11.96
2018-09-05T02:57:57.316Z,12.04
2018-09-05T02:58:57.322Z,12.01
2018-09-05T02:59:57.347Z,11.87
2018-09-05T03:00:57.485Z,11.87
2018-09-05T03:01:57.311Z,11.82
2018-09-05T03:02:57.310Z,11.77
2018-09-05T03:03:57.311Z,11.83
2018-09-05T03:04:57.334Z,11.78
2018-09-05T03:05:57.307Z,11.82
2018-09-05T03:06:57.308Z,11.93
2018-09-05T03:07:57.311Z,11.77
2018-09-05T03:08:57.308Z,11.85
2018-09-05T03:09:57.332Z,11.86
2018-09-05T03:10:57.306Z,11.87
2018-09-05T03:11:57.296Z,11.87
2018-09-05T03:12:57.434Z,11.94
2018-09-05T03:13:57.297Z,11.90
2018-09-05T03:14:57.323Z,11.97
2018-09-05T03:15:57.294Z,11.93
2018-09-05T03:16:57.293Z,12.04
2018-09-05T03:17:57.293Z,11.99
2018-09-05T03:18:57.289Z,11.90
2018-09-05T03:19:57.320Z,11.87
2018-09-05T03:20:57.313Z,11.77
2018-09-05T03:21:57.292Z,11.72
2018-09-05T03:22:57.287Z,11.77
2018-09-05T03:23:57.279Z,11.78
2018-09-05T03:24:57.277Z,11.77
2018-09-05T03:25:57.308Z,11.82
2018-09-05T03:26:57.289Z,11.82
2018-09-05T03:27:57.279Z,11.77
2018-09-05T03:28:57.282Z,11.89
2018-09-05T03:29:57.301Z,11.75
2018-09-05T03:30:57.277Z,11.94
2018-09-05T03:31:57.272Z,11.87
2018-09-05T03:32:57.285Z,11.87
2018-09-05T03:33:57.271Z,11.87
2018-09-05T03:34:57.299Z,11.82
2018-09-05T03:35:57.269Z,11.80
2018-09-05T03:36:57.268Z,11.82
2018-09-05T03:37:57.264Z,11.82
2018-09-05T03:38:57.266Z,11.83
2018-09-05T03:39:57.291Z,11.83
2018-09-05T03:40:57.464Z,11.78
2018-09-05T03:41:57.261Z,11.80
2018-09-05T03:42:57.274Z,11.83
2018-09-05T03:43:57.299Z,11.77
2018-09-05T03:44:57.281Z,11.80
2018-09-05T03:45:57.253Z,11.78
2018-09-05T03:46:57.253Z,11.85
2018-09-05T03:47:57.249Z,11.75
2018-09-05T03:48:57.251Z,11.86
2018-09-05T03:49:57.271Z,11.77
2018-09-05T03:50:57.250Z,11.80
2018-09-05T03:51:57.247Z,11.86
2018-09-05T03:52:57.242Z,11.82
2018-09-05T03:53:57.242Z,11.75
2018-09-05T03:54:57.270Z,11.80
2018-09-05T03:55:57.265Z,11.78
2018-09-05T03:56:57.238Z,11.80
2018-09-05T03:57:57.246Z,11.86
2018-09-05T03:58:57.235Z,11.87
2018-09-05T03:59:57.259Z,11.93
2018-09-05T04:00:57.232Z,11.97
2018-09-05T04:01:57.231Z,11.94
2018-09-05T04:02:57.231Z,11.85
2018-09-05T04:03:57.228Z,11.96
2018-09-05T04:04:57.264Z,11.93
2018-09-05T04:05:57.256Z,11.96
2018-09-05T04:06:57.227Z,11.89
2018-09-05T04:07:57.224Z,11.80
2018-09-05T04:08:57.223Z,11.87
2018-09-05T04:09:57.254Z,11.86
2018-09-05T04:10:57.220Z,11.94
2018-09-05T04:11:57.221Z,11.96
2018-09-05T04:12:57.216Z,12.01
2018-09-05T04:13:57.217Z,12.04
2018-09-05T04:14:57.347Z,11.99
2018-09-05T04:15:57.276Z,11.96
2018-09-05T04:16:57.210Z,11.93
2018-09-05T04:17:57.212Z,11.94
2018-09-05T04:18:57.209Z,12.05
2018-09-05T04:19:57.203Z,11.96
2018-09-05T04:20:57.237Z,12.01
2018-09-05T04:21:57.309Z,11.96
2018-09-05T04:22:57.198Z,11.82
2018-09-05T04:23:57.205Z,11.77
2018-09-05T04:24:57.276Z,11.75
2018-09-05T04:25:57.204Z,11.85
2018-09-05T04:26:57.199Z,11.82
2018-09-05T04:27:57.195Z,11.78
2018-09-05T04:28:57.195Z,11.77
2018-09-05T04:29:57.301Z,11.80
2018-09-05T04:30:57.195Z,11.83
2018-09-05T04:31:57.194Z,11.80
2018-09-05T04:32:57.192Z,11.80
2018-09-05T04:33:57.190Z,11.86
2018-09-05T04:34:57.214Z,11.87
2018-09-05T04:35:57.181Z,11.83
2018-09-05T04:36:57.186Z,11.85
2018-09-05T04:37:57.184Z,11.90
2018-09-05T04:38:57.184Z,11.96
2018-09-05T04:39:57.205Z,12.09
2018-09-05T04:40:57.185Z,12.02
2018-09-05T04:41:57.184Z,12.05
2018-09-05T04:42:57.181Z,12.15
2018-09-05T04:43:57.178Z,12.13
2018-09-05T04:44:57.209Z,12.19
2018-09-05T04:45:57.169Z,12.29
2018-09-05T04:46:57.174Z,12.16
2018-09-05T04:47:57.170Z,12.26
2018-09-05T04:48:57.171Z,12.23
2018-09-05T04:49:57.197Z,12.23
2018-09-05T04:50:57.166Z,12.24
2018-09-05T04:51:57.195Z,12.23
2018-09-05T04:52:57.164Z,12.20
2018-09-05T04:53:57.165Z,12.23
2018-09-05T04:54:57.158Z,12.21
2018-09-05T04:55:57.183Z,12.24
2018-09-05T04:56:57.160Z,12.23
2018-09-05T04:57:57.160Z,12.24
2018-09-05T04:58:57.160Z,12.29
2018-09-05T04:59:57.183Z,12.27
2018-09-05T05:00:57.156Z,12.27
2018-09-05T05:01:57.179Z,12.27
2018-09-05T05:02:57.151Z,12.23
2018-09-05T05:03:57.937Z,12.45
2018-09-05T05:04:57.154Z,12.41
2018-09-05T05:05:57.297Z,12.56
2018-09-05T05:06:57.149Z,12.52
2018-09-05T05:07:57.149Z,12.42
2018-09-05T05:08:57.143Z,12.49
2018-09-05T05:09:57.147Z,12.46
2018-09-05T05:10:57.175Z,12.57
2018-09-05T05:11:57.142Z,12.57
2018-09-05T05:12:57.146Z,12.62
2018-09-05T05:13:57.168Z,12.62
2018-09-05T05:14:57.167Z,12.67
2018-09-05T05:15:57.164Z,12.75
2018-09-05T05:16:57.140Z,12.82
2018-09-05T05:17:57.145Z,12.82
2018-09-05T05:18:57.147Z,12.96
2018-09-05T05:19:57.138Z,12.87
2018-09-05T05:20:57.171Z,13.02
2018-09-05T05:21:57.138Z,13.07
2018-09-05T05:22:57.134Z,13.09
2018-09-05T05:23:57.139Z,13.20
2018-09-05T05:24:57.129Z,13.21
2018-09-05T05:25:57.163Z,13.27
2018-09-05T05:26:57.132Z,13.37
2018-09-05T05:27:57.134Z,13.33
2018-09-05T05:28:57.129Z,13.37
2018-09-05T05:29:57.125Z,13.33
2018-09-05T05:30:57.157Z,13.51
2018-09-05T05:31:57.132Z,13.43
2018-09-05T05:32:57.233Z,13.54
2018-09-05T05:33:57.134Z,13.52
2018-09-05T05:34:57.128Z,13.51
2018-09-05T05:35:57.153Z,13.49
2018-09-05T05:36:57.161Z,13.52
2018-09-05T05:37:57.126Z,13.59
2018-09-05T05:38:57.129Z,13.52
2018-09-05T05:39:57.122Z,13.63
2018-09-05T05:40:57.126Z,13.77
2018-09-05T05:41:57.152Z,14.01
2018-09-05T05:42:57.124Z,14.01
2018-09-05T05:43:57.127Z,14.07
2018-09-05T05:44:57.154Z,14.24
2018-09-05T05:45:57.221Z,14.13
2018-09-05T05:46:57.123Z,14.07
2018-09-05T05:47:57.123Z,14.09
2018-09-05T05:48:57.120Z,13.98
2018-09-05T05:49:57.119Z,13.92
2018-09-05T05:50:57.479Z,13.99
2018-09-05T05:51:57.115Z,14.19
2018-09-05T05:52:57.119Z,14.32
2018-09-05T05:53:57.120Z,14.53
2018-09-05T05:54:57.124Z,14.80
2018-09-05T05:55:57.144Z,15.03
2018-09-05T05:56:57.119Z,15.23
2018-09-05T05:57:57.150Z,15.51
2018-09-05T05:58:57.120Z,15.66
2018-09-05T05:59:57.121Z,15.96
2018-09-05T06:00:57.180Z,16.11
2018-09-05T06:01:57.144Z,16.42
2018-09-05T06:02:57.121Z,16.58
2018-09-05T06:03:57.128Z,16.77
2018-09-05T06:04:57.123Z,16.83
2018-09-05T06:05:57.161Z,16.93
2018-09-05T06:06:57.121Z,17.04
2018-09-05T06:07:57.153Z,17.06
2018-09-05T06:08:57.121Z,17.07
2018-09-05T06:09:57.127Z,17.04
2018-09-05T06:10:57.169Z,17.23
2018-09-05T06:11:57.196Z,17.41
2018-09-05T06:12:57.122Z,17.57
2018-09-05T06:13:57.127Z,17.79
2018-09-05T06:14:57.127Z,17.95
2018-09-05T06:15:57.128Z,18.15
2018-09-05T06:16:57.160Z,18.04
2018-09-05T06:17:57.141Z,17.92
2018-09-05T06:18:57.130Z,17.89
2018-09-05T06:19:57.130Z,18.06
2018-09-05T06:20:57.172Z,18.17
2018-09-05T06:21:57.164Z,18.13
2018-09-05T06:22:57.140Z,18.37
2018-09-05T06:23:57.156Z,18.54
2018-09-05T06:24:57.140Z,18.46
2018-09-05T06:25:57.150Z,18.65
2018-09-05T06:26:57.169Z,18.90
2018-09-05T06:27:57.312Z,18.86
2018-09-05T06:28:57.147Z,18.76
2018-09-05T06:29:57.155Z,18.95
2018-09-05T06:30:57.214Z,19.32
2018-09-05T06:31:57.187Z,19.48
2018-09-05T06:32:57.161Z,19.73
2018-09-05T06:33:57.169Z,19.93
2018-09-05T06:34:57.166Z,19.50
2018-09-05T06:35:57.272Z,19.61
2018-09-05T06:36:57.167Z,19.69
2018-09-05T06:37:57.225Z,19.97
2018-09-05T06:38:57.271Z,20.27
2018-09-05T06:39:57.195Z,20.47
2018-09-05T06:40:57.238Z,20.76
2018-09-05T06:41:57.484Z,21.14
2018-09-05T06:42:57.190Z,21.35
2018-09-05T06:44:57.278Z,21.64
2018-09-05T06:45:58.389Z,21.61
2018-09-05T06:46:58.971Z,21.50
2018-09-05T06:48:04.321Z,21.53
2018-09-05T06:48:57.271Z,21.19
2018-09-05T06:49:58.890Z,20.76
2018-09-05T06:51:00.332Z,20.31
2018-09-05T06:51:59.848Z,20.06
2018-09-05T06:52:59.859Z,19.80
2018-09-05T06:53:57.821Z,19.35
2018-09-05T06:54:59.968Z,19.48
2018-09-05T06:56:03.822Z,19.55
2018-09-05T06:56:58.531Z,19.36
2018-09-05T06:58:02.864Z,19.36
2018-09-05T06:58:57.255Z,19.32
2018-09-05T06:59:57.255Z,19.31
2018-09-05T07:00:57.285Z,19.17
2018-09-05T07:02:02.119Z,19.05
2018-09-05T07:02:57.408Z,19.35
2018-09-05T07:03:59.186Z,19.51
2018-09-05T07:04:57.592Z,19.58
2018-09-05T07:05:57.476Z,19.33
2018-09-05T07:06:57.518Z,19.33
2018-09-05T07:07:58.161Z,19.32
2018-09-05T07:08:57.292Z,19.33
2018-09-05T07:09:57.358Z,19.55
2018-09-05T07:10:57.344Z,19.91
2018-09-05T07:11:57.305Z,20.41
2018-09-05T07:12:57.331Z,20.71
2018-09-05T07:13:57.310Z,20.87
2018-09-05T07:14:57.323Z,21.21
2018-09-05T07:15:57.320Z,21.50
2018-09-05T07:16:57.351Z,21.97
2018-09-05T07:17:57.334Z,22.16
2018-09-05T07:18:57.336Z,22.46
2018-09-05T07:19:57.335Z,22.80
2018-09-05T07:21:05.678Z,22.97
2018-09-05T07:21:57.410Z,23.05
2018-09-05T07:22:57.353Z,23.20
2018-09-05T07:23:57.382Z,23.09
2018-09-05T07:24:57.394Z,23.09
2018-09-05T07:25:57.364Z,23.17
2018-09-05T07:26:57.411Z,23.01
2018-09-05T07:27:57.375Z,23.04
2018-09-05T07:28:57.382Z,23.20
2018-09-05T07:29:57.385Z,23.23
2018-09-05T07:30:57.495Z,23.32
2018-09-05T07:31:57.402Z,23.50
2018-09-05T07:32:59.327Z,23.52
2018-09-05T07:33:57.447Z,23.61
2018-09-05T07:34:57.417Z,23.55
2018-09-05T07:35:57.460Z,23.82
2018-09-05T07:36:57.561Z,23.68
2018-09-05T07:37:57.444Z,23.77
2018-09-05T07:38:57.450Z,24.07
2018-09-05T07:39:57.453Z,24.19
2018-09-05T07:40:57.458Z,24.31
2018-09-05T07:41:57.512Z,24.24
2018-09-05T07:42:57.476Z,24.05
2018-09-05T07:43:57.485Z,24.12
2018-09-05T07:44:57.493Z,24.41
2018-09-05T07:45:57.500Z,24.53
2018-09-05T07:46:57.554Z,24.60
2018-09-05T07:47:57.513Z,24.82
2018-09-05T07:48:57.531Z,24.75
2018-09-05T07:49:58.364Z,24.77
2018-09-05T07:50:57.762Z,24.76
2018-09-05T07:51:57.588Z,24.73
2018-09-05T07:52:57.567Z,24.97
2018-09-05T07:53:57.574Z,24.83
2018-09-05T07:54:57.582Z,24.71
2018-09-05T07:55:57.629Z,25.10
2018-09-05T07:56:57.597Z,24.97
2018-09-05T07:57:57.607Z,24.95
2018-09-05T07:58:57.654Z,25.05
2018-09-05T07:59:57.626Z,25.22
2018-09-05T08:00:57.635Z,25.38
2018-09-05T08:01:57.679Z,25.65
2018-09-05T08:02:57.678Z,25.46
2018-09-05T08:03:57.659Z,25.32
2018-09-05T08:04:57.676Z,25.39
2018-09-05T08:05:57.693Z,25.12
2018-09-05T08:06:57.749Z,24.83
2018-09-05T08:07:57.703Z,24.69
2018-09-05T08:08:57.719Z,24.77
2018-09-05T08:09:57.730Z,24.68
2018-09-05T08:10:57.786Z,24.75
2018-09-05T08:11:57.752Z,24.97
2018-09-05T08:12:57.764Z,25.07
2018-09-05T08:13:57.776Z,24.94
2018-09-05T08:14:57.800Z,25.09
2018-09-05T08:15:57.848Z,24.23
2018-09-05T08:16:57.806Z,24.08
2018-09-05T08:17:57.837Z,23.98
2018-09-05T08:18:57.867Z,24.63
2018-09-05T08:19:57.846Z,24.97
2018-09-05T08:20:57.854Z,25.37
2018-09-05T08:21:57.908Z,25.38
2018-09-05T08:22:57.881Z,25.20
2018-09-05T08:23:57.891Z,25.13
2018-09-05T08:24:57.896Z,25.24
2018-09-05T08:25:57.935Z,25.34
2018-09-05T08:26:57.923Z,25.67
2018-09-05T08:27:57.939Z,26.18
2018-09-05T08:28:58.015Z,26.17
2018-09-05T08:29:57.968Z,26.24
2018-09-05T08:30:58.009Z,26.42
2018-09-05T08:31:57.977Z,26.36
2018-09-05T08:32:57.988Z,26.17
2018-09-05T08:33:59.004Z,25.39
2018-09-05T08:34:59.043Z,25.12
2018-09-05T08:35:58.316Z,24.44
2018-09-05T08:36:58.251Z,24.19
2018-09-05T08:37:58.095Z,24.54
2018-09-05T08:38:58.119Z,25.28
2018-09-05T08:39:58.129Z,25.80
2018-09-05T08:40:58.263Z,26.25
2018-09-05T08:41:58.420Z,25.83
2018-09-05T08:42:58.147Z,25.28
2018-09-05T08:43:58.658Z,24.87
2018-09-05T08:44:58.514Z,25.12
2018-09-05T08:45:58.241Z,25.02
2018-09-05T08:46:58.280Z,24.87
2018-09-05T08:47:58.293Z,24.85
2018-09-05T08:48:58.353Z,24.73
2018-09-05T08:49:58.522Z,25.00
2018-09-05T08:50:58.303Z,25.20
2018-09-05T08:51:59.354Z,25.44
2018-09-05T08:52:58.263Z,25.80
2018-09-05T08:53:58.266Z,25.99
2018-09-05T08:54:58.315Z,26.37
2018-09-05T08:55:58.326Z,26.72
2018-09-05T08:56:58.316Z,26.62
2018-09-05T08:57:58.317Z,26.57
2018-09-05T08:58:58.321Z,26.17
2018-09-05T08:59:58.373Z,25.82
2018-09-05T09:00:59.136Z,25.87
2018-09-05T09:01:58.405Z,25.67
2018-09-05T09:02:58.413Z,25.54
2018-09-05T09:03:59.890Z,24.83
2018-09-05T09:04:58.463Z,24.69
2018-09-05T09:05:58.455Z,24.90
2018-09-05T09:06:58.432Z,25.22
2018-09-05T09:07:58.724Z,25.28
2018-09-05T09:08:58.481Z,25.57
2018-09-05T09:09:58.475Z,26.06
2018-09-05T09:10:58.522Z,26.08
2018-09-05T09:11:58.518Z,26.52
2018-09-05T09:12:58.529Z,26.35
2018-09-05T09:13:58.528Z,26.39
2018-09-05T09:14:58.546Z,26.35
2018-09-05T09:15:58.614Z,24.76
2018-09-05T09:16:58.585Z,24.00
2018-09-05T09:17:59.424Z,23.98
2018-09-05T09:18:58.611Z,24.54
2018-09-05T09:19:58.622Z,25.46
2018-09-05T09:20:58.684Z,26.18
2018-09-05T09:21:58.654Z,26.84
2018-09-05T09:22:58.789Z,26.02
2018-09-05T09:23:58.682Z,25.80
2018-09-05T09:24:58.702Z,25.38
2018-09-05T09:25:58.769Z,25.68
2018-09-05T09:26:58.738Z,26.12
2018-09-05T09:27:58.806Z,25.65
2018-09-05T09:28:59.870Z,25.22
2018-09-05T09:29:58.794Z,25.13
2018-09-05T09:30:58.844Z,24.87
2018-09-05T09:31:58.814Z,25.50
2018-09-05T09:32:58.834Z,25.72
2018-09-05T09:33:58.852Z,25.57
2018-09-05T09:34:59.530Z,25.91
2018-09-05T09:35:58.924Z,25.80
2018-09-05T09:36:58.970Z,25.28
2018-09-05T09:37:58.917Z,25.65
2018-09-05T09:38:58.930Z,25.57
2018-09-05T09:40:01.874Z,25.09
2018-09-05T09:40:59.003Z,24.42
2018-09-05T09:41:58.980Z,24.08
2018-09-05T09:42:59.003Z,24.12
2018-09-05T09:43:59.016Z,24.26
2018-09-05T09:44:59.067Z,24.44
2018-09-05T09:46:00.422Z,24.97
2018-09-05T09:46:59.057Z,24.32
2018-09-05T09:47:59.076Z,24.82
2018-09-05T09:48:59.094Z,25.06
2018-09-05T09:49:59.153Z,24.83
2018-09-05T09:51:00.019Z,24.50
2018-09-05T09:51:59.176Z,24.79
2018-09-05T09:52:59.165Z,24.82
2018-09-05T09:53:59.188Z,24.88
2018-09-05T09:54:59.236Z,25.69
2018-09-05T09:55:59.251Z,25.30
2018-09-05T09:57:01.069Z,25.19
2018-09-05T09:57:59.250Z,25.49
2018-09-05T09:58:59.261Z,25.72
2018-09-05T09:59:59.280Z,25.94
2018-09-05T10:00:59.336Z,26.01
2018-09-05T10:01:59.330Z,25.68
2018-09-05T10:02:59.330Z,25.30
2018-09-05T10:03:59.364Z,24.92
2018-09-05T10:04:59.362Z,25.19
2018-09-05T10:05:59.435Z,25.56
2018-09-05T10:06:59.411Z,25.86
2018-09-05T10:07:59.415Z,25.87
2018-09-05T10:08:59.435Z,24.71
2018-09-05T10:09:59.668Z,25.31
2018-09-05T10:10:59.472Z,25.31
2018-09-05T10:11:59.524Z,25.44
2018-09-05T10:12:59.502Z,24.92
2018-09-05T10:13:59.519Z,24.80
2018-09-05T10:14:59.602Z,25.12
2018-09-05T10:15:59.582Z,25.34
2018-09-05T10:16:59.624Z,25.19
2018-09-05T10:17:59.583Z,25.37
2018-09-05T10:18:59.603Z,25.71
2018-09-05T10:19:59.616Z,25.99
2018-09-05T10:20:59.687Z,25.64
2018-09-05T10:21:59.656Z,25.93
2018-09-05T10:22:59.671Z,25.69
2018-09-05T10:23:59.688Z,25.46
2018-09-05T10:24:59.707Z,25.65
2018-09-05T10:25:59.754Z,25.69
2018-09-05T10:26:59.777Z,25.97
2018-09-05T10:27:59.761Z,25.99
2018-09-05T10:28:59.773Z,26.11
2018-09-05T10:29:59.791Z,26.57
2018-09-05T10:30:59.861Z,26.91
2018-09-05T10:31:59.834Z,25.98
2018-09-05T10:32:59.840Z,25.80
2018-09-05T10:33:59.863Z,25.38
2018-09-05T10:34:59.881Z,24.75
2018-09-05T10:35:59.935Z,25.09
2018-09-05T10:36:59.915Z,25.37
2018-09-05T10:37:59.936Z,25.56
2018-09-05T10:38:59.952Z,25.52
2018-09-05T10:39:59.968Z,24.91
2018-09-05T10:41:00.022Z,25.35
2018-09-05T10:42:00.008Z,25.57
2018-09-05T10:43:00.025Z,24.60
2018-09-05T10:44:00.042Z,24.67
2018-09-05T10:45:00.059Z,24.54
2018-09-05T10:46:00.116Z,24.90
2018-09-05T10:47:00.099Z,24.47
2018-09-05T10:48:00.115Z,24.83
2018-09-05T10:49:00.134Z,25.72
2018-09-05T10:50:00.155Z,26.43
2018-09-05T10:51:00.207Z,26.64
2018-09-05T10:52:00.188Z,26.05
2018-09-05T10:53:00.204Z,25.54
2018-09-05T10:54:00.223Z,25.59
2018-09-05T10:55:00.239Z,25.69
2018-09-05T10:56:00.304Z,26.54
2018-09-05T10:57:00.282Z,26.73
2018-09-05T10:58:00.345Z,27.17
2018-09-05T10:59:00.315Z,27.31
2018-09-05T11:00:00.332Z,26.15
2018-09-05T11:01:00.389Z,25.64
2018-09-05T11:02:00.374Z,25.75
2018-09-05T11:03:00.392Z,25.25
2018-09-05T11:04:00.401Z,25.46
2018-09-05T11:05:00.428Z,25.57
2018-09-05T11:06:00.490Z,25.43
2018-09-05T11:07:00.465Z,25.75
2018-09-05T11:08:00.481Z,26.42
2018-09-05T11:09:00.502Z,26.04
2018-09-05T11:10:00.518Z,26.24
2018-09-05T11:11:00.579Z,26.59
2018-09-05T11:12:00.554Z,25.71
2018-09-05T11:13:00.575Z,25.69
2018-09-05T11:14:00.595Z,25.10
2018-09-05T11:15:00.615Z,25.56
2018-09-05T11:16:00.667Z,26.28
2018-09-05T11:17:00.651Z,26.95
2018-09-05T11:18:00.671Z,27.04
2018-09-05T11:19:00.689Z,27.54
2018-09-05T11:20:00.709Z,27.01
2018-09-05T11:21:00.760Z,27.20
2018-09-05T11:22:00.744Z,26.61
2018-09-05T11:23:00.770Z,26.58
2018-09-05T11:24:00.787Z,25.97
2018-09-05T11:25:00.853Z,25.84
2018-09-05T11:26:00.861Z,25.28
2018-09-05T11:27:00.841Z,25.32
2018-09-05T11:28:00.865Z,25.27
2018-09-05T11:29:00.913Z,25.98
2018-09-05T11:30:00.898Z,26.09
2018-09-05T11:31:00.959Z,25.53
2018-09-05T11:32:00.944Z,26.20
2018-09-05T11:33:00.959Z,26.08
2018-09-05T11:34:00.981Z,25.98
2018-09-05T11:35:01.000Z,26.05
2018-09-05T11:36:01.047Z,25.56
2018-09-05T11:37:01.060Z,25.46
2018-09-05T11:38:01.060Z,26.18
2018-09-05T11:39:01.071Z,25.80
2018-09-05T11:40:01.093Z,26.24
2018-09-05T11:41:01.156Z,27.14
2018-09-05T11:42:01.137Z,27.84
2018-09-05T11:43:01.152Z,26.58
2018-09-05T11:44:01.172Z,26.24
2018-09-05T11:45:01.185Z,26.24
2018-09-05T11:46:01.249Z,27.02
2018-09-05T11:47:01.265Z,27.29
2018-09-05T11:48:01.252Z,27.17
2018-09-05T11:49:01.262Z,27.16
2018-09-05T11:50:01.286Z,26.91
2018-09-05T11:51:01.349Z,27.09
2018-09-05T11:52:01.358Z,27.24
2018-09-05T11:53:01.348Z,27.06
2018-09-05T11:54:01.370Z,27.01
2018-09-05T11:55:01.387Z,26.96
2018-09-05T11:56:01.442Z,27.11
2018-09-05T11:57:01.423Z,26.98
2018-09-05T11:58:01.449Z,26.68
2018-09-05T11:59:01.460Z,26.69
2018-09-05T12:00:01.486Z,27.10
2018-09-05T12:01:01.543Z,26.22
2018-09-05T12:02:01.526Z,26.12
2018-09-05T12:03:01.545Z,26.42
2018-09-05T12:04:01.562Z,26.47
2018-09-05T12:05:01.606Z,26.47
2018-09-05T12:06:01.655Z,26.44
2018-09-05T12:07:01.622Z,26.73
2018-09-05T12:08:01.645Z,26.06
2018-09-05T12:09:01.661Z,25.98
2018-09-05T12:10:01.681Z,26.02
2018-09-05T12:11:01.739Z,26.31
2018-09-05T12:12:01.770Z,26.36
2018-09-05T12:13:01.743Z,26.81
2018-09-05T12:14:01.759Z,26.61
2018-09-05T12:15:01.780Z,27.19
2018-09-05T12:16:01.835Z,27.13
2018-09-05T12:17:01.819Z,27.76
2018-09-05T12:18:01.835Z,27.33
2018-09-05T12:19:01.856Z,27.41
2018-09-05T12:20:01.877Z,27.19
2018-09-05T12:21:01.936Z,27.09
2018-09-05T12:22:01.912Z,27.59
2018-09-05T12:23:01.932Z,27.02
2018-09-05T12:24:01.952Z,26.24
2018-09-05T12:25:01.972Z,25.71
2018-09-05T12:26:02.043Z,26.64
2018-09-05T12:27:02.049Z,27.13
2018-09-05T12:28:02.029Z,27.06
2018-09-05T12:29:02.050Z,27.19
2018-09-05T12:30:02.070Z,27.73
2018-09-05T12:31:02.127Z,28.04
2018-09-05T12:32:02.108Z,28.96
2018-09-05T12:33:02.127Z,29.00
2018-09-05T12:34:02.147Z,29.19
2018-09-05T12:35:02.167Z,30.09
2018-09-05T12:36:02.223Z,29.38
2018-09-05T12:37:02.199Z,28.66
2018-09-05T12:38:02.223Z,28.58
2018-09-05T12:39:02.243Z,29.01
2018-09-05T12:40:02.300Z,29.44
2018-09-05T12:41:02.284Z,30.33
2018-09-05T12:42:02.304Z,30.02
2018-09-05T12:43:02.324Z,28.80
2018-09-05T12:44:02.341Z,27.85
2018-09-05T12:45:02.401Z,27.42
2018-09-05T12:46:02.384Z,27.26
2018-09-05T12:47:02.404Z,27.67
2018-09-05T12:48:02.428Z,26.98
2018-09-05T12:49:02.450Z,27.17
2018-09-05T12:50:02.508Z,28.01
2018-09-05T12:51:02.491Z,29.00
2018-09-05T12:52:02.506Z,29.45
2018-09-05T12:53:02.527Z,29.59
2018-09-05T12:54:02.547Z,29.37